Time;durP1;ratioP1;P1;durP2;ratioP2;P2;SDS_P1;SDS_P2;PMS_P1;PMS_P2;Temp;Humidity;BMP_temperature;BMP_pressure;BME280_temperature;BME280_humidity;BME280_pressure;Samples;Min_cycle;Max_cycle;Signal;HPM_P1;HPM_P2
2022/04/09 00:01:16;;;;;;;8.93;2.17;;;;;;;6.31;69.18;98255.25;5093995;28;20071;-60
2022/04/09 00:03:43;;;;;;;9.20;2.00;;;;;;;6.29;69.12;98263.19;5092721;28;20056;-59
2022/04/09 00:06:10;;;;;;;15.15;2.75;;;;;;;6.27;69.35;98259.00;5092266;28;20048;-62
2022/04/09 00:08:37;;;;;;;8.48;2.35;;;;;;;6.25;69.29;98269.53;5092439;28;20056;-59
2022/04/09 00:11:03;;;;;;;13.40;2.20;;;;;;;6.22;69.36;98262.75;5091894;28;20118;-60
2022/04/09 00:13:30;;;;;;;5.65;1.90;;;;;;;6.20;69.35;98272.44;5091930;28;20055;-60
2022/04/09 00:15:57;;;;;;;7.68;2.33;;;;;;;6.19;69.65;98272.53;5091941;28;20412;-61
2022/04/09 00:18:23;;;;;;;12.00;2.40;;;;;;;6.19;69.85;98285.59;5092306;28;20048;-59
2022/04/09 00:20:50;;;;;;;11.60;2.30;;;;;;;6.16;69.69;98286.63;5091586;28;20051;-60
2022/04/09 00:23:18;;;;;;;11.25;2.60;;;;;;;6.14;69.71;98285.91;5091856;28;20484;-61
2022/04/09 00:25:46;;;;;;;4.93;1.85;;;;;;;6.13;70.01;98290.28;5091846;28;20056;-60
2022/04/09 00:28:12;;;;;;;8.55;2.38;;;;;;;6.11;69.89;98302.59;5090343;28;20063;-62
2022/04/09 00:30:39;;;;;;;9.98;2.10;;;;;;;6.11;70.03;98306.97;5091460;28;20048;-60
2022/04/09 00:33:06;;;;;;;9.52;2.28;;;;;;;6.09;70.07;98312.31;5091870;28;20044;-59
2022/04/09 00:35:33;;;;;;;9.38;1.95;;;;;;;6.09;70.08;98311.47;5091996;28;20477;-61
2022/04/09 00:38:00;;;;;;;9.65;2.50;;;;;;;6.06;70.32;98307.25;5090390;28;20404;-60
2022/04/09 00:40:26;;;;;;;9.93;2.42;;;;;;;6.06;70.51;98320.31;5091356;28;20056;-59
2022/04/09 00:42:53;;;;;;;10.40;2.30;;;;;;;6.05;70.12;98318.66;5091609;28;20491;-61
2022/04/09 00:45:20;;;;;;;13.10;2.20;;;;;;;6.05;70.55;98330.88;5091787;28;20096;-59
2022/04/09 00:47:47;;;;;;;15.13;2.97;;;;;;;6.03;70.51;98330.97;5091665;28;20504;-60
2022/04/09 00:50:13;;;;;;;11.88;2.40;;;;;;;6.03;70.61;98333.59;5091444;28;20052;-61
2022/04/09 00:52:46;;;;;;;8.68;2.60;;;;;;;6.00;70.15;98344.19;5091370;28;20196;-61
2022/04/09 00:55:16;;;;;;;9.25;1.63;;;;;;;6.01;70.38;98338.03;5091742;28;20048;-62
2022/04/09 00:57:45;;;;;;;9.45;2.70;;;;;;;5.99;70.51;98342.50;5090280;28;20048;-62
2022/04/09 01:00:12;;;;;;;9.07;2.22;;;;;;;5.99;70.69;98345.13;5089974;28;20067;-60
2022/04/09 01:02:41;;;;;;;6.93;1.88;;;;;;;5.98;70.78;98349.50;5053206;28;1090697;-62
2022/04/09 01:05:09;;;;;;;6.68;1.77;;;;;;;5.99;70.90;98366.03;5091083;28;20090;-62
2022/04/09 01:07:36;;;;;;;14.27;2.72;;;;;;;5.99;71.05;98352.97;5092112;28;20507;-61
2022/04/09 01:10:08;;;;;;;12.45;2.60;;;;;;;5.97;70.63;98360.03;5092243;28;20052;-60
2022/04/09 01:12:37;;;;;;;6.75;2.20;;;;;;;5.98;71.28;98357.34;5092236;28;20105;-60
2022/04/09 01:15:08;;;;;;;10.15;2.35;;;;;;;5.98;71.00;98365.16;5092200;28;20048;-61
2022/04/09 01:17:36;;;;;;;9.05;2.13;;;;;;;5.98;71.21;98367.78;5091993;28;20063;-60
2022/04/09 01:20:20;;;;;;;9.95;2.58;;;;;;;5.96;70.64;98376.66;5091869;28;20047;-61
2022/04/09 01:22:47;;;;;;;10.88;2.03;;;;;;;5.99;71.11;98376.47;5092124;28;20048;-61
2022/04/09 01:25:13;;;;;;;5.93;2.03;;;;;;;5.99;71.37;98379.09;5090753;28;20052;-60
2022/04/09 01:27:40;;;;;;;7.57;2.03;;;;;;;5.99;71.33;98386.91;5092055;28;20048;-60
2022/04/09 01:30:07;;;;;;;12.05;2.33;;;;;;;5.99;71.42;98394.75;5090379;28;20048;-59
2022/04/09 01:32:34;;;;;;;10.50;1.90;;;;;;;6.00;71.32;98399.03;5090913;28;20105;-61
2022/04/09 01:35:01;;;;;;;9.52;2.40;;;;;;;6.00;71.20;98407.72;5091942;28;20044;-59
2022/04/09 01:37:28;;;;;;;12.07;2.72;;;;;;;6.00;71.32;98406.88;5091688;28;20087;-61
2022/04/09 01:39:55;;;;;;;11.07;2.53;;;;;;;5.98;71.37;98409.56;5091648;28;20097;-60
2022/04/09 01:42:22;;;;;;;9.95;2.22;;;;;;;5.97;71.39;98415.75;5091618;28;20060;-61
2022/04/09 01:44:48;;;;;;;7.78;2.05;;;;;;;5.97;71.02;98417.50;5091801;28;20051;-62
2022/04/09 01:47:15;;;;;;;13.25;2.30;;;;;;;5.96;71.33;98421.03;5091296;28;20060;-60
2022/04/09 01:49:41;;;;;;;13.10;2.10;;;;;;;5.94;71.29;98431.59;5091086;28;20549;-59
2022/04/09 01:52:08;;;;;;;11.43;2.45;;;;;;;5.94;71.60;98428.16;5090082;28;20058;-59
2022/04/09 01:54:35;;;;;;;8.50;2.05;;;;;;;5.93;71.59;98426.44;5091200;28;20048;-61
2022/04/09 01:57:02;;;;;;;8.25;1.88;;;;;;;5.93;71.46;98437.75;5091455;28;20044;-60
2022/04/09 01:59:28;;;;;;;12.10;2.08;;;;;;;5.92;71.73;98438.69;5090027;28;20110;-61
2022/04/09 02:01:55;;;;;;;12.38;1.92;;;;;;;5.92;71.76;98435.22;5091055;28;20056;-60
2022/04/09 02:04:22;;;;;;;17.10;2.72;;;;;;;5.92;72.08;98440.44;5091034;28;20044;-60
2022/04/09 02:06:49;;;;;;;8.98;2.40;;;;;;;5.94;71.87;98443.81;5091097;28;20484;-60
2022/04/09 02:09:16;;;;;;;7.97;2.78;;;;;;;5.92;71.93;98449.13;5090670;28;20105;-60
2022/04/09 02:11:43;;;;;;;5.47;1.75;;;;;;;5.93;71.53;98452.56;5090857;28;20756;-61
2022/04/09 02:14:11;;;;;;;10.05;2.40;;;;;;;5.92;71.72;98461.34;5090684;28;20048;-60
2022/04/09 02:16:39;;;;;;;9.90;2.80;;;;;;;5.92;71.73;98461.34;5089380;28;20075;-60
2022/04/09 02:19:05;;;;;;;7.72;1.77;;;;;;;5.91;71.54;98463.09;5089543;28;20052;-65
2022/04/09 02:21:32;;;;;;;8.48;2.20;;;;;;;5.90;71.55;98477.09;5090578;28;20056;-60
2022/04/09 02:23:59;;;;;;;11.13;2.63;;;;;;;5.89;71.35;98471.94;5090649;28;20048;-60
2022/04/09 02:26:25;;;;;;;8.90;2.28;;;;;;;5.87;71.83;98475.50;5090843;28;20504;-62
2022/04/09 02:28:52;;;;;;;12.48;2.45;;;;;;;5.85;71.46;98481.75;5090582;28;20101;-60
2022/04/09 02:31:20;;;;;;;11.68;2.15;;;;;;;5.84;71.45;98486.13;5090423;28;20047;-60
2022/04/09 02:33:47;;;;;;;8.20;2.45;;;;;;;5.83;71.57;98504.50;5089490;28;20055;-60
2022/04/09 02:36:15;;;;;;;8.63;2.00;;;;;;;5.80;71.75;98500.28;5090716;28;20059;-60
2022/04/09 02:38:43;;;;;;;9.63;2.65;;;;;;;5.80;72.01;98505.50;5090586;28;20055;-61
2022/04/09 02:41:09;;;;;;;10.93;2.03;;;;;;;5.79;72.25;98509.06;5090446;28;20515;-63
2022/04/09 02:43:37;;;;;;;12.82;3.17;;;;;;;5.81;72.20;98516.81;5090251;28;20044;-60
2022/04/09 02:46:03;;;;;;;9.70;2.13;;;;;;;5.81;72.38;98520.28;5090858;28;20059;-60
2022/04/09 02:48:30;;;;;;;8.30;2.30;;;;;;;5.81;72.44;98520.28;5090686;28;20059;-61
2022/04/09 02:50:57;;;;;;;12.13;2.25;;;;;;;5.83;72.43;98528.84;5090299;28;20055;-60
2022/04/09 02:53:24;;;;;;;6.40;1.80;;;;;;;5.84;72.62;98533.13;5090684;28;20051;-61
2022/04/09 02:55:50;;;;;;;13.90;3.45;;;;;;;5.85;72.78;98533.97;5090314;28;20056;-60
2022/04/09 02:58:17;;;;;;;10.15;2.55;;;;;;;5.87;72.85;98538.19;5089018;28;20443;-60
2022/04/09 03:00:44;;;;;;;7.38;2.03;;;;;;;5.90;72.94;98546.78;5090377;28;20478;-60
2022/04/09 03:03:10;;;;;;;9.25;2.40;;;;;;;5.94;73.22;98553.53;5090477;28;20093;-60
2022/04/09 03:05:37;;;;;;;9.18;2.45;;;;;;;5.95;73.04;98545.56;5090249;28;20040;-60
2022/04/09 03:08:04;;;;;;;12.10;2.15;;;;;;;6.00;72.58;98555.78;5090906;28;20052;-59
2022/04/09 03:10:31;;;;;;;10.82;2.20;;;;;;;6.02;72.82;98560.91;5090062;28;20048;-60
2022/04/09 03:12:58;;;;;;;6.22;2.05;;;;;;;6.04;72.17;98556.44;5090145;28;20416;-60
2022/04/09 03:15:26;;;;;;;5.65;1.70;;;;;;;6.04;72.36;98566.91;5088974;28;20048;-60
2022/04/09 03:17:53;;;;;;;8.90;2.22;;;;;;;6.03;72.37;98573.91;5090235;28;20056;-60
2022/04/09 03:20:20;;;;;;;8.45;2.33;;;;;;;6.02;72.08;98572.19;5090152;28;20478;-60
2022/04/09 03:22:48;;;;;;;7.22;1.80;;;;;;;6.02;72.55;98576.59;5090085;28;20055;-61
2022/04/09 03:25:15;;;;;;;11.90;2.83;;;;;;;6.02;72.46;98582.63;5088779;28;20056;-60
2022/04/09 03:27:42;;;;;;;8.98;2.15;;;;;;;6.04;72.82;98588.66;5090132;28;20058;-61
2022/04/09 03:30:10;;;;;;;9.68;1.85;;;;;;;6.05;72.60;98589.50;5090062;28;20048;-61
2022/04/09 03:32:37;;;;;;;8.27;2.05;;;;;;;6.04;72.71;98591.25;5090177;28;20056;-60
2022/04/09 03:35:05;;;;;;;13.32;2.33;;;;;;;6.05;72.41;98599.97;5088990;28;20055;-61
2022/04/09 03:37:39;;;;;;;7.95;2.13;;;;;;;6.05;72.23;98599.97;5088605;28;20048;-61
2022/04/09 03:40:07;;;;;;;12.10;2.28;;;;;;;6.06;72.66;98601.63;5089903;28;20794;-61
2022/04/09 03:42:34;;;;;;;9.40;1.80;;;;;;;6.08;72.53;98607.59;5088875;28;20052;-60
2022/04/09 03:45:00;;;;;;;8.95;2.08;;;;;;;6.08;72.73;98604.97;5090134;28;20040;-60
2022/04/09 03:47:27;;;;;;;9.95;2.75;;;;;;;6.10;72.90;98609.19;5089810;28;20082;-60
2022/04/09 03:49:54;;;;;;;12.48;2.72;;;;;;;6.09;72.68;98610.13;5089679;28;20066;-61
2022/04/09 03:52:20;;;;;;;8.38;1.75;;;;;;;6.11;72.78;98617.88;5089626;28;20583;-60
2022/04/09 03:54:47;;;;;;;7.50;1.70;;;;;;;6.12;72.70;98612.56;5090105;28;20109;-62
2022/04/09 03:57:13;;;;;;;5.72;1.77;;;;;;;6.13;72.73;98616.00;5093144;28;20055;-60
2022/04/09 03:59:40;;;;;;;13.10;2.17;;;;;;;6.13;72.42;98622.09;5093477;28;20390;-61
2022/04/09 04:02:06;;;;;;;11.38;2.15;;;;;;;6.14;72.31;98617.72;5093593;28;20117;-60
2022/04/09 04:04:34;;;;;;;8.05;1.73;;;;;;;6.12;71.94;98616.94;5093759;28;20055;-60
2022/04/09 04:07:01;;;;;;;9.43;2.20;;;;;;;6.10;71.96;98630.09;5093466;28;20048;-61
2022/04/09 04:09:27;;;;;;;9.10;2.20;;;;;;;6.07;71.78;98632.03;5093203;28;20048;-61
2022/04/09 04:11:54;;;;;;;8.27;2.15;;;;;;;6.04;72.15;98638.28;5093061;28;20044;-60
2022/04/09 04:14:21;;;;;;;5.70;1.40;;;;;;;6.02;71.89;98649.72;5093157;28;20484;-60
2022/04/09 04:16:47;;;;;;;7.20;2.10;;;;;;;5.98;71.75;98644.66;5093271;28;20056;-62
2022/04/09 04:19:14;;;;;;;8.77;2.03;;;;;;;5.96;71.99;98654.38;5093040;28;20056;-60
2022/04/09 04:21:41;;;;;;;3.47;1.60;;;;;;;5.95;72.40;98659.69;5093626;28;20117;-60
2022/04/09 04:24:07;;;;;;;7.55;1.85;;;;;;;5.93;72.37;98664.13;5092173;28;20135;-60
2022/04/09 04:26:34;;;;;;;5.45;1.65;;;;;;;5.91;72.60;98669.44;5093318;28;20117;-61
2022/04/09 04:29:00;;;;;;;5.03;2.03;;;;;;;5.91;72.50;98669.44;5093323;28;20059;-61
2022/04/09 04:31:27;;;;;;;8.13;1.67;;;;;;;5.90;72.21;98672.97;5092976;28;20040;-60
2022/04/09 04:33:54;;;;;;;8.07;1.63;;;;;;;5.89;72.41;98679.13;5091753;28;20105;-61
2022/04/09 04:36:20;;;;;;;6.53;1.75;;;;;;;5.87;72.28;98681.81;5092019;28;20048;-60
2022/04/09 04:38:47;;;;;;;6.72;1.90;;;;;;;5.85;72.16;98686.31;5093262;28;20044;-60
2022/04/09 04:41:14;;;;;;;6.03;1.90;;;;;;;5.84;72.12;98683.78;5092884;28;20121;-62
2022/04/09 04:43:40;;;;;;;7.10;1.90;;;;;;;5.81;72.05;98690.00;5092955;28;20044;-61
2022/04/09 04:46:07;;;;;;;4.97;1.52;;;;;;;5.79;72.05;98706.69;5093035;28;20048;-61
2022/04/09 04:48:34;;;;;;;8.60;1.55;;;;;;;5.75;72.04;98708.59;5093047;28;20060;-60
2022/04/09 04:51:00;;;;;;;7.63;1.92;;;;;;;5.71;72.04;98705.31;5092349;28;20081;-62
2022/04/09 04:53:27;;;;;;;11.15;1.85;;;;;;;5.68;72.36;98713.31;5092848;28;20059;-60
2022/04/09 04:55:53;;;;;;;7.53;1.80;;;;;;;5.67;72.32;98718.63;5092967;28;20052;-60
2022/04/09 04:58:20;;;;;;;11.63;2.08;;;;;;;5.66;72.65;98722.16;5092850;28;20156;-61
2022/04/09 05:00:47;;;;;;;7.53;1.58;;;;;;;5.64;72.60;98722.25;5092413;28;20101;-61
2022/04/09 05:03:13;;;;;;;4.18;1.50;;;;;;;5.64;72.71;98729.25;5092971;28;20056;-62
2022/04/09 05:05:40;;;;;;;3.55;1.50;;;;;;;5.63;72.63;98732.75;5092755;28;20056;-60
2022/04/09 05:08:09;;;;;;;10.25;2.33;;;;;;;5.62;72.73;98737.16;5091164;28;20052;-60
2022/04/09 05:10:35;;;;;;;5.35;1.77;;;;;;;5.60;72.67;98739.00;5092137;28;20052;-63
2022/04/09 05:13:02;;;;;;;8.75;1.75;;;;;;;5.59;72.68;98746.00;5092233;28;20047;-60
2022/04/09 05:15:29;;;;;;;4.25;1.30;;;;;;;5.57;72.66;98750.44;5092350;28;20052;-63
2022/04/09 05:17:55;;;;;;;5.32;1.65;;;;;;;5.55;72.64;98757.53;5090876;28;20052;-60
2022/04/09 05:20:22;;;;;;;5.90;1.38;;;;;;;5.54;72.76;98752.38;5092163;28;20123;-60
2022/04/09 05:22:49;;;;;;;8.70;1.88;;;;;;;5.53;72.82;98761.97;5090873;28;20055;-61
2022/04/09 05:25:21;;;;;;;7.13;1.83;;;;;;;5.52;72.86;98756.81;5092022;28;20056;-60
2022/04/09 05:27:49;;;;;;;8.20;2.08;;;;;;;5.50;72.88;98762.16;5092167;28;20108;-60
2022/04/09 05:30:16;;;;;;;6.18;1.30;;;;;;;5.52;73.04;98777.69;5090246;28;20047;-60
2022/04/09 05:32:43;;;;;;;6.32;2.03;;;;;;;5.51;73.28;98774.28;5091750;28;20484;-60
2022/04/09 05:35:10;;;;;;;3.15;1.05;;;;;;;5.50;73.27;98782.19;5092018;28;20125;-60
2022/04/09 05:37:41;;;;;;;10.02;1.77;;;;;;;5.51;73.39;98778.63;5090708;28;20048;-59
2022/04/09 05:40:08;;;;;;;11.27;1.63;;;;;;;5.50;73.50;98784.78;5091868;28;20052;-61
2022/04/09 05:42:35;;;;;;;7.63;1.63;;;;;;;5.52;73.74;98783.78;5090354;28;20083;-60
2022/04/09 05:45:02;;;;;;;10.25;1.60;;;;;;;5.55;74.13;98791.47;5092323;28;20113;-61
2022/04/09 05:47:29;;;;;;;6.00;1.70;;;;;;;5.58;74.48;98791.28;5091777;28;20071;-60
2022/04/09 05:49:59;;;;;;;3.90;1.52;;;;;;;5.64;74.63;98799.75;5090166;28;20056;-60
2022/04/09 05:52:26;;;;;;;9.98;2.00;;;;;;;5.71;75.17;98795.88;5090451;28;20067;-60
2022/04/09 05:54:53;;;;;;;6.30;1.80;;;;;;;5.80;75.06;98797.97;5091563;28;20044;-59
2022/04/09 05:57:19;;;;;;;8.15;1.98;;;;;;;5.89;75.03;98798.44;5091394;28;20052;-60
2022/04/09 05:59:46;;;;;;;12.00;2.63;;;;;;;5.96;74.90;98805.88;5091661;28;20113;-61
2022/04/09 06:02:13;;;;;;;7.70;2.15;;;;;;;6.03;74.67;98806.41;5091489;28;20047;-61
2022/04/09 06:04:40;;;;;;;6.07;1.77;;;;;;;6.09;74.36;98811.31;5090254;28;20052;-60
2022/04/09 06:07:06;;;;;;;6.72;1.60;;;;;;;6.13;74.19;98818.06;5091457;28;20048;-60
2022/04/09 06:09:33;;;;;;;3.35;1.80;;;;;;;6.16;73.71;98819.66;5091057;28;20044;-61
2022/04/09 06:11:59;;;;;;;9.70;2.05;;;;;;;6.19;73.61;98829.09;5090922;28;20052;-60
2022/04/09 06:14:26;;;;;;;7.60;1.88;;;;;;;6.20;73.50;98834.25;5091302;28;20051;-61
2022/04/09 06:16:53;;;;;;;5.13;1.70;;;;;;;6.21;73.75;98838.53;5091311;28;20043;-59
2022/04/09 06:19:19;;;;;;;6.80;1.70;;;;;;;6.23;73.45;98848.91;5090422;28;20089;-60
2022/04/09 06:21:46;;;;;;;5.75;1.45;;;;;;;6.25;73.49;98844.47;5090837;28;20551;-60
2022/04/09 06:24:12;;;;;;;8.13;1.75;;;;;;;6.26;73.65;98840.91;5090791;28;20062;-60
2022/04/09 06:26:39;;;;;;;8.13;1.60;;;;;;;6.29;73.72;98843.38;5090895;28;20052;-60
2022/04/09 06:29:06;;;;;;;6.32;1.92;;;;;;;6.32;73.67;98853.63;5090506;28;20446;-63
2022/04/09 06:31:33;;;;;;;6.30;1.30;;;;;;;6.34;73.85;98854.41;5090619;28;20048;-62
2022/04/09 06:33:59;;;;;;;5.43;1.50;;;;;;;6.38;73.64;98855.94;5090756;28;20106;-60
2022/04/09 06:36:26;;;;;;;10.02;2.22;;;;;;;6.39;73.54;98868.06;5090907;28;20060;-61
2022/04/09 06:38:53;;;;;;;12.20;2.15;;;;;;;6.43;73.82;98871.34;5089567;28;20108;-61
2022/04/09 06:41:20;;;;;;;6.90;1.42;;;;;;;6.49;73.99;98873.66;5090436;28;20143;-59
2022/04/09 06:43:47;;;;;;;5.97;1.90;;;;;;;6.57;74.74;98870.59;5090699;28;20504;-60
2022/04/09 06:46:15;;;;;;;6.07;1.80;;;;;;;6.63;74.36;98878.13;5089166;28;20048;-60
2022/04/09 06:48:42;;;;;;;5.22;1.35;;;;;;;6.73;74.55;98875.00;5090655;28;20389;-60
2022/04/09 06:51:09;;;;;;;5.53;1.40;;;;;;;6.83;74.64;98881.41;5090381;28;20575;-61
2022/04/09 06:53:35;;;;;;;3.42;1.52;;;;;;;6.91;74.26;98891.44;5090607;28;20044;-60
2022/04/09 06:56:04;;;;;;;2.53;1.13;;;;;;;6.98;73.30;98899.78;5090830;28;20104;-61
2022/04/09 06:58:32;;;;;;;6.30;1.52;;;;;;;7.06;73.58;98897.56;5089424;28;20048;-61
2022/04/09 07:00:59;;;;;;;4.53;1.52;;;;;;;7.12;73.33;98897.25;5090763;28;20063;-59
2022/04/09 07:03:26;;;;;;;6.75;1.30;;;;;;;7.15;73.03;98899.66;5090586;28;20138;-60
2022/04/09 07:05:54;;;;;;;8.18;1.45;;;;;;;7.20;73.12;98902.03;5089134;28;20044;-59
2022/04/09 07:08:21;;;;;;;6.50;1.35;;;;;;;7.26;73.42;98913.94;5088310;28;20052;-59
2022/04/09 07:10:48;;;;;;;6.40;2.00;;;;;;;7.31;73.48;98914.50;5089276;28;20056;-62
2022/04/09 07:13:14;;;;;;;7.38;1.85;;;;;;;7.36;73.49;98916.88;5089729;28;20558;-59
2022/04/09 07:15:41;;;;;;;8.00;1.50;;;;;;;7.40;73.15;98913.97;5090407;28;20097;-60
2022/04/09 07:18:07;;;;;;;8.48;1.73;;;;;;;7.47;73.29;98924.94;5090259;28;20055;-62
2022/04/09 07:20:36;;;;;;;3.75;1.20;;;;;;;7.53;73.38;98919.38;5090030;28;20378;-60
2022/04/09 07:23:03;;;;;;;4.88;1.50;;;;;;;7.61;73.63;98928.53;5090492;28;20055;-60
2022/04/09 07:25:30;;;;;;;3.75;1.40;;;;;;;7.65;73.20;98915.19;5088904;28;20044;-61
2022/04/09 07:27:57;;;;;;;9.25;1.50;;;;;;;7.73;73.15;98930.44;5088979;28;20527;-59
2022/04/09 07:30:27;;;;;;;4.40;1.38;;;;;;;7.80;72.99;98917.81;5090381;28;20067;-61
2022/04/09 07:32:57;;;;;;;4.38;1.33;;;;;;;7.86;73.20;98935.81;5092893;28;20048;-60
2022/04/09 07:35:25;;;;;;;4.15;1.30;;;;;;;7.94;73.11;98946.69;5092913;28;20120;-62
2022/04/09 07:37:54;;;;;;;7.00;1.42;;;;;;;8.01;73.03;98943.69;5092556;28;20044;-62
2022/04/09 07:40:21;;;;;;;12.82;1.90;;;;;;;8.09;73.07;98946.72;5093419;28;20511;-60
2022/04/09 07:42:48;;;;;;;5.53;1.45;;;;;;;8.16;72.77;98949.81;5091422;28;20059;-61
2022/04/09 07:45:15;;;;;;;6.50;2.08;;;;;;;8.21;72.32;98953.84;5093458;28;20563;-60
2022/04/09 07:47:44;;;;;;;7.80;1.10;;;;;;;8.24;71.10;98962.44;5093004;28;20070;-62
2022/04/09 07:50:12;;;;;;;7.43;1.80;;;;;;;8.22;70.06;98975.63;5092090;28;20507;-60
2022/04/09 07:52:40;;;;;;;8.23;1.60;;;;;;;8.19;70.40;98967.97;5092698;28;20477;-61
2022/04/09 07:55:11;;;;;;;5.25;1.42;;;;;;;8.13;69.75;98966.56;5092732;28;20044;-60
2022/04/09 07:57:38;;;;;;;5.45;1.85;;;;;;;8.07;70.71;98972.16;5093916;28;20044;-59
2022/04/09 08:00:06;;;;;;;9.25;1.70;;;;;;;8.03;71.08;98979.38;5092338;28;20055;-60
2022/04/09 08:02:33;;;;;;;7.95;1.70;;;;;;;8.02;71.96;98979.44;5093318;28;20056;-62
2022/04/09 08:04:59;;;;;;;6.63;1.98;;;;;;;8.02;72.27;98980.31;5093556;28;20101;-60
2022/04/09 08:07:26;;;;;;;6.03;2.05;;;;;;;8.05;72.17;98984.53;5093774;28;20063;-61
2022/04/09 08:09:52;;;;;;;7.07;2.25;;;;;;;8.07;72.04;98982.63;5093352;28;20044;-60
2022/04/09 08:12:19;;;;;;;8.50;1.88;;;;;;;8.12;72.26;98993.72;5093407;28;20052;-59
2022/04/09 08:14:46;;;;;;;6.38;1.77;;;;;;;8.18;72.53;98992.47;5093354;28;20062;-59
2022/04/09 08:17:13;;;;;;;7.38;1.73;;;;;;;8.25;72.89;99000.81;5093353;28;20044;-60
2022/04/09 08:19:40;;;;;;;4.82;1.48;;;;;;;8.32;72.62;99003.00;5093310;28;20094;-59
2022/04/09 08:22:08;;;;;;;9.23;2.00;;;;;;;8.39;72.19;99003.47;5093164;28;20652;-60
2022/04/09 08:24:34;;;;;;;8.90;2.28;;;;;;;8.46;72.51;98994.28;5091881;28;20523;-60
2022/04/09 08:27:01;;;;;;;7.68;1.60;;;;;;;8.52;72.15;99008.00;5093509;28;20048;-61
2022/04/09 08:29:31;;;;;;;8.32;1.67;;;;;;;8.58;71.97;99008.50;5093238;28;20051;-59
2022/04/09 08:32:01;;;;;;;7.55;1.95;;;;;;;8.64;71.55;99016.91;5091288;28;20056;-59
2022/04/09 08:34:29;;;;;;;9.02;1.88;;;;;;;8.69;71.39;99020.97;5091281;28;20496;-60
2022/04/09 08:37:06;;;;;;;6.50;1.60;;;;;;;8.75;71.37;99011.03;5092279;28;20075;-59
2022/04/09 08:39:34;;;;;;;6.43;1.60;;;;;;;8.80;70.99;99017.69;5092628;28;20624;-60
2022/04/09 08:42:02;;;;;;;4.35;1.63;;;;;;;8.88;71.60;99014.56;5091394;28;20060;-59
2022/04/09 08:44:33;;;;;;;5.45;1.52;;;;;;;8.94;70.33;99024.66;5093119;28;20060;-60
2022/04/09 08:47:00;;;;;;;6.03;2.00;;;;;;;9.02;70.75;99026.84;5091589;28;20086;-60
2022/04/09 08:49:29;;;;;;;5.97;1.60;;;;;;;9.08;70.51;99021.19;5092832;28;20043;-60
2022/04/09 08:51:55;;;;;;;9.40;1.75;;;;;;;9.18;71.22;99023.22;5091874;28;20512;-60
2022/04/09 08:54:22;;;;;;;10.10;1.65;;;;;;;9.25;70.73;99024.53;5092639;28;20048;-60
2022/04/09 08:56:50;;;;;;;5.53;1.30;;;;;;;9.33;70.68;99019.66;5092733;28;20098;-60
2022/04/09 08:59:17;;;;;;;8.07;1.50;;;;;;;9.41;70.52;99027.03;5091413;28;20052;-60
2022/04/09 09:01:43;;;;;;;8.73;1.85;;;;;;;9.47;70.35;99026.66;5092587;28;20122;-59
2022/04/09 09:04:10;;;;;;;6.75;1.60;;;;;;;9.55;70.00;99028.78;5092687;28;20122;-60
2022/04/09 09:06:40;;;;;;;7.55;1.70;;;;;;;9.61;69.69;99027.53;5092371;28;20082;-59
2022/04/09 09:09:14;;;;;;;7.75;1.65;;;;;;;9.67;69.40;99029.75;5074417;28;20496;-67
2022/04/09 09:11:46;;;;;;;10.35;2.08;;;;;;;9.74;68.35;99031.06;5091161;28;20451;-67
2022/04/09 09:14:32;;;;;;;5.38;1.33;;;;;;;9.81;66.54;99039.38;5074467;28;20106;-60
2022/04/09 09:17:00;;;;;;;6.43;1.70;;;;;;;9.94;69.42;99046.47;5090915;28;20076;-60
2022/04/09 09:19:42;;;;;;;8.32;2.10;;;;;;;9.97;66.75;99048.88;5091655;28;20061;-61
2022/04/09 09:22:09;;;;;;;6.53;1.40;;;;;;;10.04;68.64;99043.13;5091197;28;20059;-61
2022/04/09 09:24:36;;;;;;;6.20;1.42;;;;;;;10.07;68.24;99051.75;5090883;28;20056;-60
2022/04/09 09:27:04;;;;;;;4.63;1.38;;;;;;;10.04;67.00;99043.13;5092073;28;20052;-61
2022/04/09 09:29:32;;;;;;;6.03;1.48;;;;;;;9.99;66.45;99045.19;5090697;28;20114;-62
2022/04/09 09:32:01;;;;;;;5.90;1.40;;;;;;;9.93;66.18;99053.50;5090792;28;20048;-60
2022/04/09 09:34:28;;;;;;;7.50;1.27;;;;;;;9.85;66.57;99045.28;5090923;28;20047;-59
2022/04/09 09:36:56;;;;;;;4.13;1.10;;;;;;;9.78;67.63;99035.16;5090872;28;20052;-61
2022/04/09 09:39:24;;;;;;;5.20;1.42;;;;;;;9.78;68.32;99044.81;5090683;28;20055;-59
2022/04/09 09:41:58;;;;;;;4.13;0.98;;;;;;;9.81;68.96;99033.28;5090670;28;20055;-60
2022/04/09 09:44:26;;;;;;;3.95;1.20;;;;;;;9.88;68.51;99051.16;5090523;28;20105;-60
2022/04/09 09:46:54;;;;;;;9.15;1.88;;;;;;;9.97;69.24;99043.59;5092438;28;20058;-62
2022/04/09 09:49:24;;;;;;;7.05;1.50;;;;;;;10.05;69.33;99051.84;5091712;28;20044;-60
2022/04/09 09:52:06;;;;;;;4.82;1.17;;;;;;;10.14;67.27;99043.31;5090856;28;20230;-60
2022/04/09 09:54:33;;;;;;;4.23;1.30;;;;;;;10.29;68.83;99048.53;5090431;28;20051;-65
2022/04/09 09:57:00;;;;;;;5.38;1.23;;;;;;;10.38;67.57;99052.31;5091644;28;20836;-59
2022/04/09 09:59:28;;;;;;;4.32;1.27;;;;;;;10.44;67.28;99057.22;5089971;28;20062;-61
2022/04/09 10:01:56;;;;;;;7.40;1.60;;;;;;;10.51;67.47;99055.00;5090327;28;20492;-59
2022/04/09 10:04:23;;;;;;;3.63;1.10;;;;;;;10.58;67.73;99058.06;5090295;28;20050;-60
2022/04/09 10:06:50;;;;;;;4.03;0.95;;;;;;;10.66;68.22;99050.47;5091604;28;20109;-60
2022/04/09 10:09:19;;;;;;;4.63;1.00;;;;;;;10.78;68.86;99054.91;5090865;28;20101;-59
2022/04/09 10:11:54;;;;;;;8.98;1.48;;;;;;;10.93;68.38;99052.13;5090084;28;20496;-60
2022/04/09 10:14:22;;;;;;;4.63;1.10;;;;;;;11.10;67.72;99055.38;5091560;28;20051;-59
2022/04/09 10:16:53;;;;;;;5.40;1.33;;;;;;;11.25;67.15;99062.19;5089879;28;20058;-59
2022/04/09 10:19:23;;;;;;;5.20;1.50;;;;;;;11.33;64.87;99061.66;5089574;28;20098;-61
2022/04/09 10:21:51;;;;;;;4.90;1.52;;;;;;;11.41;66.57;99058.44;5091026;28;20134;-59
2022/04/09 10:24:22;;;;;;;5.75;1.52;;;;;;;11.50;66.21;99054.28;5090972;28;20404;-62
2022/04/09 10:26:49;;;;;;;4.03;1.30;;;;;;;11.60;66.54;99057.97;5089959;28;20503;-60
2022/04/09 10:29:15;;;;;;;6.25;0.80;;;;;;;11.71;65.75;99059.81;5091227;28;20048;-60
2022/04/09 10:31:43;;;;;;;5.40;1.83;;;;;;;11.78;65.02;99066.31;5091069;28;20052;-61
2022/04/09 10:34:10;;;;;;;6.13;1.23;;;;;;;11.82;64.58;99073.03;5091032;28;20048;-60
2022/04/09 10:36:40;;;;;;;7.03;1.20;;;;;;;11.83;62.80;99074.75;5089947;28;20060;-60
2022/04/09 10:39:23;;;;;;;6.13;1.20;;;;;;;11.76;60.85;99070.88;5090882;28;20424;-61
2022/04/09 10:41:50;;;;;;;5.97;1.52;;;;;;;11.77;63.78;99077.81;5089535;28;20056;-61
2022/04/09 10:44:52;;;;;;;3.50;1.02;;;;;;;11.65;55.40;99110.34;5089539;28;20066;-59
2022/04/09 10:47:19;;;;;;;2.92;0.88;;;;;;;11.58;62.06;99113.44;5089654;28;20052;-59
2022/04/09 10:50:01;;;;;;;2.20;0.85;;;;;;;11.35;58.33;99122.97;5090667;28;20668;-60
2022/04/09 10:52:32;;;;;;;3.50;1.10;;;;;;;11.18;60.38;99135.53;5090744;28;20098;-59
2022/04/09 10:55:23;;;;;;;6.88;1.17;;;;;;;10.89;59.62;99140.19;5089078;28;20511;-60
2022/04/09 10:57:52;;;;;;;3.67;1.00;;;;;;;10.71;62.08;99152.78;5089423;28;20052;-59
2022/04/09 11:00:22;;;;;;;5.15;0.90;;;;;;;10.43;61.20;99140.50;5090596;28;20055;-60
2022/04/09 11:03:14;;;;;;;2.60;0.82;;;;;;;10.14;60.18;99132.75;5089213;28;20048;-60
2022/04/09 11:05:43;;;;;;;6.00;0.70;;;;;;;9.99;64.31;99125.88;5093000;28;20056;-61
2022/04/09 11:08:14;;;;;;;3.67;0.80;;;;;;;9.83;64.86;99126.84;5094880;28;20785;-62
2022/04/09 11:10:45;;;;;;;3.22;0.90;;;;;;;9.71;65.25;99131.13;5093219;28;20427;-59
2022/04/09 11:13:15;;;;;;;2.35;0.57;;;;;;;9.72;68.56;99129.34;5093361;28;20063;-63
2022/04/09 11:15:45;;;;;;;3.05;0.90;;;;;;;9.96;72.39;99123.44;5077126;28;20094;-60
2022/04/09 11:18:12;;;;;;;2.75;0.60;;;;;;;10.40;75.02;99119.66;5093194;28;20060;-59
2022/04/09 11:20:38;;;;;;;2.67;0.70;;;;;;;11.00;76.49;99113.97;5094146;28;20732;-59
2022/04/09 11:23:14;;;;;;;5.15;1.20;;;;;;;11.76;74.16;99101.66;5094427;28;20075;-63
2022/04/09 11:25:43;;;;;;;3.55;0.90;;;;;;;12.59;77.14;99113.16;5093122;28;20044;-62
2022/04/09 11:28:13;;;;;;;4.53;0.82;;;;;;;13.40;75.68;99101.69;5094275;28;20067;-61
2022/04/09 11:30:51;;;;;;;4.53;1.25;;;;;;;14.25;68.48;99102.91;5092833;28;20143;-61
2022/04/09 11:33:18;;;;;;;7.00;1.60;;;;;;;15.02;72.58;99108.84;5093305;28;20059;-60
2022/04/09 11:35:45;;;;;;;4.18;1.30;;;;;;;15.71;70.48;99117.06;5094315;28;20580;-61
2022/04/09 11:38:12;;;;;;;3.33;1.05;;;;;;;16.32;68.31;99101.03;5094493;28;20060;-60
2022/04/09 11:40:48;;;;;;;4.25;1.52;;;;;;;16.85;66.59;99117.44;5093835;28;20047;-60
2022/04/09 11:43:16;;;;;;;4.68;1.23;;;;;;;17.35;65.66;99127.94;5093860;28;20481;-60